Time;durP1;ratioP1;P1;durP2;ratioP2;P2;SDS_P1;SDS_P2;PMS_P1;PMS_P2;Temp;Humidity;BMP_temperature;BMP_pressure;BME280_temperature;BME280_humidity;BME280_pressure;Samples;Min_cycle;Max_cycle;Signal;HPM_P1;HPM_P2
2022/01/04 00:01:57;;;;;;;142.90;86.82;;;;;;;2.58;79.81;97671.03;10418083;28;20042;-58
2022/01/04 00:06:57;;;;;;;149.90;91.65;;;;;;;2.50;80.11;97675.06;10419838;28;20068;-58
2022/01/04 00:16:55;;;;;;;154.30;94.00;;;;;;;2.44;80.00;97685.16;10419264;28;20020;-58
2022/01/04 00:21:55;;;;;;;145.35;89.72;;;;;;;2.40;79.96;97685.88;10417567;28;20537;-58
2022/01/04 00:26:54;;;;;;;142.35;87.43;;;;;;;2.30;80.19;97688.97;10411681;28;20131;-58
2022/01/04 00:31:53;;;;;;;149.20;88.10;;;;;;;2.27;80.79;97696.56;10410235;28;20041;-58
2022/01/04 00:36:53;;;;;;;171.27;104.68;;;;;;;2.17;80.78;97693.72;10414647;28;20049;-58
2022/01/04 00:41:53;;;;;;;193.70;119.60;;;;;;;2.03;81.65;97697.53;10411447;28;20048;-58
2022/01/04 00:46:52;;;;;;;173.07;106.15;;;;;;;1.92;81.60;97693.75;10412032;28;20068;-58
2022/01/04 00:51:53;;;;;;;130.77;82.50;;;;;;;1.81;81.76;97702.78;10411072;28;20044;-58
2022/01/04 00:56:52;;;;;;;121.97;76.00;;;;;;;1.74;81.75;97702.59;10405739;28;20122;-58
2022/01/04 01:01:51;;;;;;;112.43;68.38;;;;;;;1.65;81.80;97697.19;10412968;28;20107;-58
2022/01/04 01:06:50;;;;;;;122.15;74.97;;;;;;;1.64;81.59;97695.41;10411485;28;20052;-58
2022/01/04 01:11:49;;;;;;;111.90;70.70;;;;;;;1.63;81.83;97687.72;10412153;28;20020;-58
2022/01/04 01:16:48;;;;;;;106.45;64.15;;;;;;;1.60;81.57;97664.56;10411400;28;20799;-58
2022/01/04 01:21:47;;;;;;;100.82;60.10;;;;;;;1.57;81.91;97667.91;10411983;28;20040;-58
2022/01/04 01:26:46;;;;;;;88.05;54.90;;;;;;;1.54;81.80;97657.59;10414504;28;20388;-58
2022/01/04 01:31:45;;;;;;;91.80;58.90;;;;;;;1.52;81.66;97664.31;10413161;28;20084;-58
2022/01/04 01:36:44;;;;;;;90.47;57.17;;;;;;;1.47;81.95;97660.75;10412697;28;20039;-57
2022/01/04 01:41:43;;;;;;;88.47;56.63;;;;;;;1.37;81.86;97654.47;10412350;28;20396;-58
2022/01/04 01:46:42;;;;;;;87.72;52.42;;;;;;;1.38;82.08;97652.78;10412925;28;20060;-58
2022/01/04 01:51:41;;;;;;;104.95;66.70;;;;;;;1.20;83.31;97661.59;10414674;28;20056;-58
2022/01/04 01:56:40;;;;;;;;;;;;;;;1.24;83.22;97657.44;10388218;28;20063;-58
2022/01/04 02:01:40;;;;;;;92.03;56.70;;;;;;;1.23;83.21;97656.56;10414823;28;19920;-58
2022/01/04 02:06:40;;;;;;;104.85;63.90;;;;;;;1.10;83.54;97647.59;10394371;28;20056;-58
2022/01/04 02:11:40;;;;;;;105.10;63.92;;;;;;;1.10;83.57;97639.06;10371878;28;20475;-58
2022/01/04 02:16:39;;;;;;;99.60;61.03;;;;;;;1.16;83.40;97635.88;10381448;28;20455;-58
2022/01/04 02:21:38;;;;;;;89.63;55.53;;;;;;;1.16;83.40;97635.88;10413186;28;20531;-58
2022/01/04 02:26:40;;;;;;;94.50;54.78;;;;;;;1.16;83.13;97643.53;10413468;28;20040;-58
2022/01/04 02:31:39;;;;;;;92.90;55.30;;;;;;;1.10;83.18;97651.84;10414008;28;20080;-58
2022/01/04 02:36:41;;;;;;;102.43;62.05;;;;;;;1.05;83.85;97651.69;10413025;28;20033;-58
2022/01/04 02:41:40;;;;;;;112.15;66.40;;;;;;;0.95;83.93;97648.78;10413562;28;20064;-58
2022/01/04 02:46:39;;;;;;;105.85;64.53;;;;;;;0.96;83.74;97645.38;10412189;28;20058;-58
2022/01/04 02:51:38;;;;;;;108.45;65.10;;;;;;;0.94;83.74;97641.91;10412790;28;20032;-57
2022/01/04 02:56:37;;;;;;;103.15;63.00;;;;;;;0.82;83.51;97625.34;10413335;28;20503;-57
2022/01/04 03:01:37;;;;;;;94.88;58.33;;;;;;;0.87;83.53;97643.38;10410207;28;20075;-58
2022/01/04 03:06:36;;;;;;;125.70;75.35;;;;;;;0.74;83.94;97649.75;10420042;28;20072;-57
2022/01/04 03:11:36;;;;;;;135.10;80.32;;;;;;;0.42;84.10;97617.94;10420220;28;20060;-58
2022/01/04 03:16:35;;;;;;;124.53;75.13;;;;;;;0.47;84.85;97639.41;10421365;28;20068;-57
2022/01/04 03:21:39;;;;;;;114.63;65.32;;;;;;;0.46;84.58;97638.53;10420557;28;20051;-58
2022/01/04 03:26:38;;;;;;;98.32;58.80;;;;;;;0.47;84.50;97641.94;10419656;28;20060;-58
2022/01/04 03:31:38;;;;;;;;;;;;;;;0.44;84.15;97640.16;10420628;28;20492;-58
2022/01/04 03:36:37;;;;;;;73.28;43.65;;;;;;;0.44;84.06;97635.03;10417644;28;19962;-58
2022/01/04 03:41:39;;;;;;;63.83;37.63;;;;;;;0.43;84.23;97635.88;10420148;28;20483;-58
2022/01/04 03:46:38;;;;;;;100.40;59.42;;;;;;;0.38;84.61;97646.72;10417691;28;20067;-58
2022/01/04 03:51:37;;;;;;;112.55;69.78;;;;;;;0.36;84.86;97650.88;10419937;28;20017;-57
2022/01/04 03:56:36;;;;;;;111.75;66.47;;;;;;;0.17;84.88;97628.91;10419909;28;20402;-58
2022/01/04 04:01:35;;;;;;;130.88;75.10;;;;;;;0.25;84.76;97663.25;10391254;28;20072;-57
2022/01/04 04:06:34;;;;;;;125.32;75.47;;;;;;;0.25;84.73;97669.22;10401053;28;20060;-57
2022/01/04 04:11:33;;;;;;;;;;;;;;;0.23;85.00;97670.00;10417412;28;20461;-58
2022/01/04 04:16:33;;;;;;;113.05;67.18;;;;;;;0.11;84.85;97641.47;10418727;28;20275;-57
2022/01/04 04:21:33;;;;;;;103.68;62.20;;;;;;;0.22;84.59;97643.59;10417465;28;20056;-58
2022/01/04 04:26:32;;;;;;;112.50;66.63;;;;;;;0.18;84.74;97646.84;10414148;28;20484;-57
2022/01/04 04:31:32;;;;;;;96.50;58.30;;;;;;;0.10;84.78;97649.91;10417491;28;20800;-58
2022/01/04 04:36:32;;;;;;;93.93;60.03;;;;;;;-0.05;85.49;97643.41;10414348;28;21019;-57
2022/01/04 04:41:32;;;;;;;84.78;52.35;;;;;;;-0.05;85.14;97661.25;10415913;28;20060;-58
2022/01/04 04:46:31;;;;;;;72.75;45.30;;;;;;;-0.04;84.99;97663.03;10417020;28;20058;-58
2022/01/04 04:51:31;;;;;;;60.08;39.67;;;;;;;-0.07;84.75;97654.38;10415648;28;20025;-58
2022/01/04 04:56:30;;;;;;;70.22;42.17;;;;;;;-0.14;85.02;97648.16;10415423;28;20060;-58
2022/01/04 05:01:28;;;;;;;62.75;40.13;;;;;;;-0.10;84.90;97644.91;10412938;28;20812;-58
2022/01/04 05:06:28;;;;;;;73.95;43.10;;;;;;;-0.09;84.65;97645.78;10416404;28;20744;-58
2022/01/04 05:11:26;;;;;;;95.28;55.35;;;;;;;-0.14;84.99;97649.84;10414494;28;20059;-58
2022/01/04 05:16:25;;;;;;;144.45;87.35;;;;;;;-0.18;85.11;97656.53;10415754;28;20036;-58
2022/01/04 05:21:24;;;;;;;154.77;90.40;;;;;;;-0.17;85.01;97648.91;10413846;28;20071;-58
2022/01/04 05:26:23;;;;;;;153.10;96.55;;;;;;;-0.32;84.93;97619.38;10397198;28;20037;-58
2022/01/04 05:31:22;;;;;;;144.10;85.00;;;;;;;-0.19;85.37;97639.47;10414791;28;20036;-58
2022/01/04 05:36:21;;;;;;;128.77;77.75;;;;;;;-0.18;85.31;97626.78;10411982;28;20076;-58
2022/01/04 05:41:20;;;;;;;106.15;61.13;;;;;;;-0.19;84.88;97619.06;10413580;28;20021;-58
2022/01/04 05:46:19;;;;;;;91.57;51.15;;;;;;;-0.17;85.06;97617.44;10397509;28;20028;-58
2022/01/04 05:51:18;;;;;;;79.53;45.70;;;;;;;-0.17;85.17;97607.25;10415341;28;20519;-58
2022/01/04 05:56:17;;;;;;;75.35;45.63;;;;;;;-0.14;84.87;97616.69;10413325;28;20048;-58
2022/01/04 06:01:16;;;;;;;87.70;50.55;;;;;;;-0.12;85.22;97615.94;10408299;28;20403;-58
2022/01/04 06:06:15;;;;;;;96.40;57.42;;;;;;;-0.09;85.14;97616.03;10414301;28;20107;-58
2022/01/04 06:11:31;;;;;;;105.80;61.33;;;;;;;-0.02;85.38;97610.38;10413516;28;20099;-59
2022/01/04 06:16:30;;;;;;;101.75;56.65;;;;;;;0.08;85.51;97606.50;10413742;28;20071;-58
2022/01/04 06:21:29;;;;;;;105.97;60.72;;;;;;;0.18;85.73;97598.38;10414042;28;20036;-58
2022/01/04 06:26:28;;;;;;;112.88;64.10;;;;;;;0.26;85.59;97608.84;10413190;28;20028;-58
2022/01/04 06:31:28;;;;;;;221.63;117.03;;;;;;;0.35;85.67;97606.63;10414457;28;20546;-58
2022/01/04 06:36:27;;;;;;;171.57;104.47;;;;;;;0.33;86.17;97605.69;10409378;28;20064;-58
2022/01/04 06:41:26;;;;;;;89.97;51.90;;;;;;;0.25;86.15;97612.22;10420983;28;20115;-58
2022/01/04 06:46:25;;;;;;;222.07;63.78;;;;;;;-0.11;85.75;97612.59;10420023;28;20028;-58
2022/01/04 06:51:24;;;;;;;165.25;64.10;;;;;;;-0.47;85.15;97587.38;10392862;28;20099;-58
2022/01/04 06:56:23;;;;;;;81.85;42.67;;;;;;;-0.29;85.36;97596.56;10405744;28;20527;-58
2022/01/04 07:01:22;;;;;;;90.93;53.42;;;;;;;-0.29;85.35;97622.06;10418759;28;20434;-58
2022/01/04 07:06:21;;;;;;;84.55;51.72;;;;;;;-0.16;85.04;97619.16;10408862;28;20576;-58
2022/01/04 07:11:20;;;;;;;79.57;45.95;;;;;;;0.01;85.60;97612.19;10401258;28;20119;-58
2022/01/04 07:16:19;;;;;;;75.57;46.03;;;;;;;0.22;85.30;97607.03;10414633;28;20040;-58
2022/01/04 07:21:20;;;;;;;72.90;44.17;;;;;;;0.37;85.16;97610.13;10419460;28;20027;-58
2022/01/04 07:26:19;;;;;;;72.75;42.95;;;;;;;0.56;85.06;97591.22;10418690;28;20072;-58
2022/01/04 07:31:18;;;;;;;75.90;43.72;;;;;;;0.73;85.10;97586.69;10421307;28;20048;-58
2022/01/04 07:36:18;;;;;;;;;;;;;;;0.94;85.16;97575.47;10419486;28;20838;-58
2022/01/04 07:41:17;;;;;;;91.43;58.90;;;;;;;1.11;84.94;97574.38;10420030;28;19963;-58
2022/01/04 07:46:16;;;;;;;123.32;76.13;;;;;;;1.26;84.89;97572.31;10420138;28;20275;-58
2022/01/04 07:51:15;;;;;;;132.40;82.53;;;;;;;1.32;84.71;97554.63;10415986;28;20071;-58
2022/01/04 07:56:14;;;;;;;126.30;79.38;;;;;;;1.49;84.15;97547.47;10418804;28;20029;-58
2022/01/04 08:01:13;;;;;;;122.15;80.43;;;;;;;1.87;83.99;97575.91;10416777;28;20060;-58
2022/01/04 08:06:12;;;;;;;;;;;;;;;1.99;83.91;97577.09;10419957;28;20068;-58
2022/01/04 08:11:11;;;;;;;119.85;79.70;;;;;;;1.94;83.99;97571.84;10414767;28;19913;-58
2022/01/04 08:16:10;;;;;;;149.70;98.45;;;;;;;1.94;84.44;97571.84;10416134;28;20071;-58
2022/01/04 08:21:09;;;;;;;160.90;110.28;;;;;;;1.91;84.04;97551.31;10451136;28;20032;-58
2022/01/04 08:26:08;;;;;;;146.00;99.32;;;;;;;2.23;84.06;97566.72;10424955;28;20829;-58
2022/01/04 08:31:07;;;;;;;129.48;85.38;;;;;;;2.44;83.32;97564.78;10418514;28;20576;-58
2022/01/04 08:36:08;;;;;;;120.13;81.07;;;;;;;2.66;83.18;97542.31;10414496;28;20500;-58
2022/01/04 08:41:07;;;;;;;129.20;87.53;;;;;;;2.85;82.80;97529.13;10413278;28;20087;-58
2022/01/04 08:46:06;;;;;;;147.80;104.97;;;;;;;3.00;82.72;97534.66;10413832;28;20033;-58
2022/01/04 08:51:05;;;;;;;140.68;97.13;;;;;;;3.22;82.20;97524.94;10416145;28;20029;-58
2022/01/04 08:56:05;;;;;;;114.78;80.93;;;;;;;3.43;81.81;97507.47;10416470;28;20020;-58
2022/01/04 09:01:03;;;;;;;;;;;;;;;3.62;81.74;97506.19;10393864;28;20121;-58
2022/01/04 09:06:02;;;;;;;128.70;86.18;;;;;;;3.82;81.09;97490.34;10417218;28;19912;-58
2022/01/04 09:11:01;;;;;;;113.30;78.40;;;;;;;4.01;80.67;97486.47;10413814;28;20032;-57
2022/01/04 09:20:59;;;;;;;102.90;74.82;;;;;;;4.36;79.97;97478.59;10416595;28;20098;-58
2022/01/04 09:25:59;;;;;;;111.10;80.88;;;;;;;4.58;78.90;97464.44;10405695;28;20854;-58
2022/01/04 09:30:58;;;;;;;119.78;83.18;;;;;;;4.86;78.22;97461.50;10430768;28;20471;-60
2022/01/04 09:35:57;;;;;;;126.53;89.72;;;;;;;5.07;77.50;97432.75;10412900;28;20068;-58
2022/01/04 09:40:57;;;;;;;;;;;;;;;5.37;76.65;97434.03;10414352;28;20447;-58
2022/01/04 09:45:56;;;;;;;105.45;79.43;;;;;;;5.61;75.50;97412.06;10396434;28;20727;-58
2022/01/04 09:50:57;;;;;;;;;;;;;;;5.83;75.32;97398.59;10402301;28;20111;-58
2022/01/04 09:55:56;;;;;;;98.10;72.80;;;;;;;6.11;74.17;97386.88;10403984;28;20382;-58
2022/01/04 10:00:56;;;;;;;89.68;64.63;;;;;;;6.37;73.35;97370.81;10414328;28;20064;-58
2022/01/04 10:06:14;;;;;;;92.38;70.60;;;;;;;6.59;72.04;97362.44;10413140;28;21376;-59
2022/01/04 10:11:13;;;;;;;113.13;80.95;;;;;;;6.87;71.22;97351.50;10412295;28;20514;-58
2022/01/04 10:16:16;;;;;;;98.28;71.57;;;;;;;7.17;70.32;97346.53;10413556;28;20048;-58
2022/01/04 10:21:15;;;;;;;91.20;65.95;;;;;;;7.39;68.65;97328.56;10410070;28;20823;-58
2022/01/04 10:26:15;;;;;;;78.93;55.80;;;;;;;7.58;68.50;97314.91;10413973;28;20467;-58
2022/01/04 10:31:16;;;;;;;61.35;44.03;;;;;;;7.77;67.27;97307.22;10410390;28;20076;-58
2022/01/04 10:36:19;;;;;;;70.15;47.63;;;;;;;7.97;66.62;97308.16;10413564;28;20071;-58
2022/01/04 10:41:23;;;;;;;69.53;46.70;;;;;;;8.26;64.92;97286.63;10413546;28;20060;-58
2022/01/04 10:46:44;;;;;;;63.15;43.90;;;;;;;8.56;62.73;97265.09;10398590;28;20063;-59
2022/01/04 10:51:43;;;;;;;55.63;39.75;;;;;;;8.94;60.00;97257.25;10395454;28;20048;-58
2022/01/04 10:56:42;;;;;;;44.80;31.95;;;;;;;9.43;60.57;97266.59;10412141;28;20071;-58
2022/01/04 11:01:47;;;;;;;55.08;38.33;;;;;;;9.89;58.84;97261.19;10412295;28;20027;-59
2022/01/04 11:06:48;;;;;;;34.45;26.88;;;;;;;10.35;57.96;97249.63;10386060;28;20088;-59
2022/01/04 11:11:47;;;;;;;35.28;24.75;;;;;;;10.79;56.34;97245.75;10397636;28;20063;-59
2022/01/04 11:16:46;;;;;;;31.77;23.08;;;;;;;11.16;55.32;97242.81;10403759;28;20112;-59
2022/01/04 11:21:45;;;;;;;33.38;20.67;;;;;;;11.42;53.96;97242.50;10403040;28;20040;-59
2022/01/04 11:26:46;;;;;;;19.67;13.75;;;;;;;11.66;49.51;97231.75;10399707;28;20832;-59
2022/01/04 11:32:01;;;;;;;10.98;6.90;;;;;;;12.03;45.04;97212.19;10389752;28;20111;-59
2022/01/04 11:37:00;;;;;;;10.07;6.50;;;;;;;12.33;42.10;97205.66;10408914;28;20068;-59
2022/01/04 11:42:03;;;;;;;14.52;7.45;;;;;;;12.59;43.14;97215.63;10386349;28;20059;-59
2022/01/04 11:47:03;;;;;;;8.88;5.85;;;;;;;12.84;43.12;97215.19;10419389;28;20078;-59
2022/01/04 11:52:03;;;;;;;11.43;6.70;;;;;;;12.96;43.57;97209.72;10419988;28;20063;-59
2022/01/04 11:57:05;;;;;;;13.60;7.32;;;;;;;13.05;41.29;97193.94;10419645;28;20067;-59
2022/01/04 12:02:29;;;;;;;11.18;6.18;;;;;;;13.20;40.52;97181.47;10419072;28;20075;-59
2022/01/04 12:07:41;;;;;;;11.77;5.30;;;;;;;13.28;39.95;97180.44;10391911;28;20068;-59
2022/01/04 12:13:06;;;;;;;8.13;4.40;;;;;;;13.28;38.90;97179.56;10395822;28;20079;-58
2022/01/04 12:18:07;;;;;;;8.05;3.53;;;;;;;13.25;38.79;97179.63;10401133;28;20060;-59
2022/01/04 12:23:25;;;;;;;6.25;3.95;;;;;;;13.22;38.44;97174.50;10414332;28;20067;-58
2022/01/04 12:28:25;;;;;;;11.43;4.20;;;;;;;13.18;38.61;97160.66;10394456;28;20064;-59
2022/01/04 12:33:35;;;;;;;9.15;4.50;;;;;;;13.20;38.97;97160.63;10410722;28;20060;-58
2022/01/04 12:38:34;;;;;;;8.63;4.18;;;;;;;13.19;39.39;97156.28;10379099;28;20064;-59
2022/01/04 12:43:33;;;;;;;6.70;3.67;;;;;;;13.08;38.91;97156.53;10397285;28;20129;-59
2022/01/04 12:48:49;;;;;;;7.72;4.22;;;;;;;12.96;39.43;97162.84;10406186;28;20071;-59
2022/01/04 12:53:48;;;;;;;8.25;4.20;;;;;;;12.85;40.00;97160.44;10415447;28;20807;-59
2022/01/04 12:58:47;;;;;;;11.75;4.63;;;;;;;12.67;40.19;97151.28;10409118;28;20079;-59
2022/01/04 13:03:46;;;;;;;9.45;4.70;;;;;;;12.53;40.67;97145.44;10412528;28;20562;-59
2022/01/04 13:08:52;;;;;;;11.15;4.75;;;;;;;12.61;40.68;97138.34;10411490;28;20067;-59
2022/01/04 13:14:00;;;;;;;11.40;5.50;;;;;;;12.56;41.04;97132.38;10409852;28;20094;-59
2022/01/04 13:19:29;;;;;;;10.07;5.50;;;;;;;12.50;41.57;97124.69;10411973;28;20106;-59
2022/01/04 13:24:56;;;;;;;9.48;5.65;;;;;;;12.38;41.32;97133.56;10406247;28;20072;-59
2022/01/04 13:29:58;;;;;;;7.80;5.57;;;;;;;12.26;42.17;97120.75;10406021;28;20072;-59
2022/01/04 13:35:05;;;;;;;10.85;5.75;;;;;;;12.24;42.38;97130.34;10414530;28;20075;-59
2022/01/04 13:40:08;;;;;;;11.88;7.18;;;;;;;12.02;42.98;97101.25;10381004;28;20087;-59
2022/01/04 13:45:13;;;;;;;12.30;6.20;;;;;;;12.17;43.36;97129.59;10404646;28;20063;-58
2022/01/04 13:50:21;;;;;;;9.10;5.60;;;;;;;12.12;43.18;97126.22;10393009;28;20079;-59
2022/01/04 13:55:20;;;;;;;9.38;5.45;;;;;;;12.13;43.50;97111.44;10414862;28;20071;-59
2022/01/04 14:00:33;;;;;;;11.18;7.20;;;;;;;12.18;43.44;97131.31;10413308;28;20116;-59
2022/01/04 14:05:36;;;;;;;9.77;5.10;;;;;;;12.17;42.52;97123.53;10414711;28;20060;-59
2022/01/04 14:10:49;;;;;;;13.10;5.53;;;;;;;12.21;42.44;97120.84;10408857;28;20542;-58
2022/01/04 14:16:12;;;;;;;10.18;5.45;;;;;;;12.22;42.43;97122.53;10396946;28;20460;-59
2022/01/04 14:21:10;;;;;;;7.70;5.00;;;;;;;12.18;42.62;97110.50;10377459;28;20127;-59
2022/01/04 14:26:09;;;;;;;9.20;6.45;;;;;;;12.12;42.45;97112.34;10390473;28;20024;-59
2022/01/04 14:31:16;;;;;;;11.43;7.07;;;;;;;12.04;42.12;97117.66;10412935;28;20105;-59
2022/01/04 14:36:15;;;;;;;14.07;6.57;;;;;;;11.98;42.35;97118.63;10410837;28;20060;-59
2022/01/04 14:41:14;;;;;;;14.55;6.72;;;;;;;11.88;42.85;97123.13;10414436;28;20024;-59
2022/01/04 14:46:13;;;;;;;13.32;6.50;;;;;;;11.75;43.12;97116.41;10404526;28;20862;-59
2022/01/04 14:51:12;;;;;;;10.35;6.45;;;;;;;11.56;43.91;97115.00;10370914;28;20037;-59
2022/01/04 14:56:11;;;;;;;9.88;6.20;;;;;;;11.42;44.13;97112.59;10382845;28;20575;-59
2022/01/04 15:01:10;;;;;;;14.13;8.40;;;;;;;11.28;44.16;97109.34;10392262;28;20411;-59
2022/01/04 15:06:09;;;;;;;17.20;9.55;;;;;;;11.09;45.02;97112.19;10380860;28;20055;-59
2022/01/04 15:11:09;;;;;;;17.38;10.20;;;;;;;10.92;44.86;97120.19;10399825;28;20033;-59
2022/01/04 15:16:09;;;;;;;18.35;10.77;;;;;;;10.71;45.80;97121.28;10380256;28;20632;-59
2022/01/04 15:21:08;;;;;;;13.43;8.68;;;;;;;10.50;46.21;97122.38;10379840;28;20064;-59
2022/01/04 15:26:07;;;;;;;15.65;9.38;;;;;;;10.35;47.27;97122.53;10394720;28;20056;-59
2022/01/04 15:31:06;;;;;;;19.77;10.32;;;;;;;10.19;47.23;97112.34;10420736;28;20049;-59
2022/01/04 15:36:07;;;;;;;20.60;10.40;;;;;;;10.07;47.14;97108.97;10396423;28;20083;-59
2022/01/04 15:41:09;;;;;;;23.77;11.55;;;;;;;9.97;47.85;97108.22;10379324;28;20845;-58
2022/01/04 15:46:08;;;;;;;24.48;12.15;;;;;;;9.79;47.38;97101.44;10377352;28;20073;-59
2022/01/04 15:51:08;;;;;;;16.70;11.20;;;;;;;9.80;47.34;97120.47;10405170;28;20063;-59
2022/01/04 15:56:07;;;;;;;17.25;10.82;;;;;;;9.73;47.71;97114.47;10380028;28;20528;-59
2022/01/04 16:01:06;;;;;;;23.48;12.05;;;;;;;9.65;48.48;97119.72;10394688;28;20036;-59
2022/01/04 16:06:05;;;;;;;17.83;12.00;;;;;;;9.56;48.21;97106.84;10382135;28;20025;-59
2022/01/04 16:11:04;;;;;;;18.75;12.18;;;;;;;9.60;47.93;97121.47;10368648;28;20056;-59
2022/01/04 16:16:14;;;;;;;15.40;8.27;;;;;;;9.50;49.02;97112.91;10377701;28;20119;-59
2022/01/04 16:21:33;;;;;;;;;;;;;;;9.42;49.01;97114.69;10317982;28;20165;-59
2022/01/04 16:26:38;;;;;;;14.07;9.05;;;;;;;9.41;48.51;97107.78;10328253;28;19955;-59
2022/01/04 16:31:38;;;;;;;15.70;10.40;;;;;;;9.32;48.96;97093.19;10318537;28;20069;-59
2022/01/04 16:36:40;;;;;;;17.50;9.23;;;;;;;9.35;49.56;97108.69;10313498;28;20464;-59
2022/01/04 16:41:39;;;;;;;14.32;9.85;;;;;;;9.33;49.39;97107.00;10309537;28;20065;-59
2022/01/04 16:46:39;;;;;;;;;;;;;;;9.33;49.83;97105.25;10320438;28;20081;-59
2022/01/04 16:51:39;;;;;;;18.60;8.68;;;;;;;9.35;48.79;97087.97;10334086;28;20375;-59
2022/01/04 16:56:38;;;;;;;11.05;6.15;;;;;;;9.49;49.02;97099.97;10330507;28;20072;-58
2022/01/04 17:01:44;;;;;;;10.00;5.45;;;;;;;9.63;48.22;97089.50;10333964;28;20057;-58
2022/01/04 17:06:43;;;;;;;10.18;6.18;;;;;;;9.64;48.42;97073.94;10334326;28;20471;-59
2022/01/04 17:11:55;;;;;;;12.25;6.10;;;;;;;9.74;48.08;97079.91;10295356;28;20507;-58
2022/01/04 17:16:55;;;;;;;10.95;6.38;;;;;;;9.80;48.52;97086.78;10309314;28;20083;-59
2022/01/04 17:21:54;;;;;;;10.57;5.65;;;;;;;9.80;47.55;97076.41;10310427;28;20065;-59
2022/01/04 17:26:54;;;;;;;11.32;6.07;;;;;;;9.79;47.51;97078.13;10326075;28;20492;-58
2022/01/04 17:31:55;;;;;;;11.07;5.82;;;;;;;9.80;47.53;97079.00;10326293;28;20069;-58
2022/01/04 17:36:55;;;;;;;9.57;5.57;;;;;;;9.80;47.72;97079.88;10293317;28;20065;-58
2022/01/04 17:41:55;;;;;;;11.73;5.82;;;;;;;9.86;47.89;97087.56;10291112;28;20478;-58
2022/01/04 17:46:55;;;;;;;9.07;5.22;;;;;;;9.81;46.66;97086.75;10325311;28;20065;-59
2022/01/04 17:51:55;;;;;;;14.15;7.68;;;;;;;9.83;46.08;97084.16;10331412;28;20061;-59
2022/01/04 17:56:54;;;;;;;11.63;5.70;;;;;;;9.83;45.65;97084.16;10309627;28;20100;-59
2022/01/04 18:01:53;;;;;;;9.68;5.30;;;;;;;9.81;45.13;97075.53;10330598;28;20408;-59
2022/01/04 18:06:52;;;;;;;15.32;5.50;;;;;;;9.83;45.49;97060.84;10316565;28;20128;-58
2022/01/04 18:11:51;;;;;;;8.45;4.47;;;;;;;9.78;45.40;97066.91;10314499;28;20025;-58
2022/01/04 18:16:52;;;;;;;8.00;4.60;;;;;;;9.77;44.53;97054.84;10321066;28;20080;-59
2022/01/04 18:21:51;;;;;;;11.35;5.30;;;;;;;9.76;45.13;97060.88;10304831;28;20077;-58
2022/01/04 18:26:50;;;;;;;8.25;4.30;;;;;;;9.70;45.14;97068.72;10291529;28;20029;-58
2022/01/04 18:31:49;;;;;;;7.10;3.75;;;;;;;9.71;45.03;97060.06;10291748;28;20076;-58
2022/01/04 18:36:48;;;;;;;9.25;4.78;;;;;;;9.75;44.61;97069.53;10303725;28;20061;-59
2022/01/04 18:41:47;;;;;;;8.27;4.55;;;;;;;9.52;44.45;97020.50;10316821;28;20126;-59
2022/01/04 18:46:46;;;;;;;11.25;6.75;;;;;;;9.86;44.58;97069.41;10344176;28;20033;-59
2022/01/04 18:51:45;;;;;;;14.63;7.15;;;;;;;9.86;44.80;97063.38;10345268;28;20053;-59
2022/01/04 18:56:44;;;;;;;10.65;5.40;;;;;;;9.77;45.50;97059.16;10330041;28;20057;-59
2022/01/04 19:01:44;;;;;;;10.77;5.97;;;;;;;9.74;44.73;97054.00;10305038;28;20029;-58
2022/01/04 19:06:42;;;;;;;;;;;;;;;9.67;45.85;97052.34;10304771;28;20481;-58
2022/01/04 19:11:41;;;;;;;8.98;4.95;;;;;;;9.43;45.61;97006.78;10304748;28;19910;-58
2022/01/04 19:16:40;;;;;;;9.63;5.05;;;;;;;9.45;45.53;97010.22;10303605;28;20073;-59
2022/01/04 19:21:39;;;;;;;8.73;5.10;;;;;;;9.65;46.00;97057.56;10322268;28;20065;-58
2022/01/04 19:26:39;;;;;;;8.07;5.13;;;;;;;9.67;45.44;97058.38;10339544;28;20076;-59
2022/01/04 19:31:40;;;;;;;9.90;4.95;;;;;;;9.73;45.87;97063.50;10311886;28;20080;-59
2022/01/04 19:36:43;;;;;;;9.38;6.13;;;;;;;9.66;45.79;97048.88;10344614;28;20081;-59
2022/01/04 19:41:43;;;;;;;9.55;5.80;;;;;;;9.64;45.75;97048.03;10314608;28;20077;-59
2022/01/04 19:46:42;;;;;;;13.35;7.75;;;;;;;9.55;46.60;97045.53;10300293;28;20080;-59
2022/01/04 19:51:41;;;;;;;;;;;;;;;9.61;46.20;97063.63;10308062;28;20060;-59
2022/01/04 19:56:40;;;;;;;10.00;5.93;;;;;;;9.63;45.71;97055.81;10337841;28;19913;-58
2022/01/04 20:01:39;;;;;;;14.15;7.53;;;;;;;9.69;45.71;97055.78;10337938;28;20061;-59
2022/01/04 20:06:39;;;;;;;12.50;7.32;;;;;;;9.68;45.61;97052.34;10335729;28;20472;-59
2022/01/04 20:11:38;;;;;;;25.35;15.75;;;;;;;9.63;45.99;97056.69;10335649;28;20061;-59
2022/01/04 20:16:38;;;;;;;28.55;18.30;;;;;;;9.66;45.78;97069.63;10302031;28;20040;-59
2022/01/04 20:21:37;;;;;;;24.52;17.65;;;;;;;9.76;45.29;97062.63;10296104;28;20080;-59
2022/01/04 20:26:37;;;;;;;59.17;41.45;;;;;;;9.71;45.84;97060.06;10295363;28;20034;-59
2022/01/04 20:31:36;;;;;;;15.55;10.05;;;;;;;9.62;46.41;97046.34;10296861;28;20077;-58
2022/01/04 20:36:35;;;;;;;22.75;14.40;;;;;;;9.47;46.45;97057.69;10295365;28;20075;-59
2022/01/04 20:41:34;;;;;;;28.25;17.58;;;;;;;9.30;47.36;97063.88;10295794;28;20038;-59
2022/01/04 20:46:33;;;;;;;34.53;22.30;;;;;;;9.00;48.59;97056.25;10295329;28;20073;-58
2022/01/04 20:51:32;;;;;;;;;;;;;;;8.68;49.15;97052.13;10296141;28;20064;-59
2022/01/04 20:56:31;;;;;;;44.03;29.60;;;;;;;8.44;50.65;97043.59;10318152;28;19944;-58
2022/01/04 21:01:30;;;;;;;50.47;38.35;;;;;;;8.04;51.47;97077.31;10331926;28;20044;-58
2022/01/04 21:06:29;;;;;;;34.78;20.73;;;;;;;7.93;52.24;97060.97;10334707;28;20107;-59
2022/01/04 21:11:28;;;;;;;39.33;27.27;;;;;;;7.77;52.55;97048.94;10326921;28;20520;-59
2022/01/04 21:16:27;;;;;;;33.42;22.02;;;;;;;7.59;53.43;97045.53;10298119;28;20729;-58
2022/01/04 21:21:26;;;;;;;50.95;34.90;;;;;;;7.51;53.99;97054.97;10335387;28;20111;-59
2022/01/04 21:26:25;;;;;;;37.38;25.23;;;;;;;7.41;53.70;97046.38;10300999;28;20040;-59
2022/01/04 21:31:24;;;;;;;36.05;21.13;;;;;;;7.38;54.50;97050.63;10297883;28;20678;-59
2022/01/04 21:36:23;;;;;;;33.47;19.50;;;;;;;7.25;54.22;97029.13;10333083;28;20069;-58
2022/01/04 21:41:23;;;;;;;39.08;22.42;;;;;;;7.23;54.64;97044.63;10334408;28;20030;-59
2022/01/04 21:46:24;;;;;;;37.05;25.10;;;;;;;7.14;55.50;97062.66;10316989;28;20077;-58
2022/01/04 21:51:24;;;;;;;104.63;62.22;;;;;;;6.79;56.69;97055.72;10328762;28;20065;-58
2022/01/04 21:56:22;;;;;;;86.32;54.70;;;;;;;6.46;58.07;97027.25;10332614;28;20084;-59
2022/01/04 22:01:21;;;;;;;77.70;51.97;;;;;;;6.48;58.17;97048.75;10328099;28;20047;-58
2022/01/04 22:06:20;;;;;;;73.53;47.00;;;;;;;6.42;58.29;97044.41;10333566;28;20045;-58
2022/01/04 22:11:19;;;;;;;69.53;42.45;;;;;;;6.27;59.56;97055.53;10306051;28;20069;-58
2022/01/04 22:16:18;;;;;;;66.97;41.00;;;;;;;6.11;59.88;97041.72;10312750;28;20041;-58
2022/01/04 22:21:17;;;;;;;64.80;37.70;;;;;;;6.00;60.54;97042.50;10317614;28;20037;-58
2022/01/04 22:26:16;;;;;;;62.50;36.38;;;;;;;5.87;61.03;97045.03;10331982;28;20481;-58
2022/01/04 22:31:15;;;;;;;49.55;27.98;;;;;;;5.91;60.85;97045.91;10332831;28;20423;-58
2022/01/04 22:36:14;;;;;;;28.55;16.60;;;;;;;5.96;60.57;97045.06;10297248;28;20029;-59
2022/01/04 22:41:13;;;;;;;26.65;15.77;;;;;;;6.05;60.49;97046.00;10326343;28;20036;-59
2022/01/04 22:46:12;;;;;;;27.30;15.05;;;;;;;6.10;60.52;97037.44;10311066;28;20030;-59
2022/01/04 22:51:11;;;;;;;27.80;15.60;;;;;;;6.15;60.42;97034.88;10309098;28;20029;-59
2022/01/04 22:56:10;;;;;;;37.55;19.67;;;;;;;6.10;60.61;97026.25;10326433;28;20500;-58
2022/01/04 23:01:09;;;;;;;37.08;20.88;;;;;;;6.02;61.31;97033.06;10328882;28;20129;-58
2022/01/04 23:06:09;;;;;;;40.78;22.52;;;;;;;5.83;62.21;97032.97;10330412;28;20077;-58
2022/01/04 23:11:10;;;;;;;34.42;19.50;;;;;;;5.73;62.66;97023.47;10298714;28;20073;-59
2022/01/04 23:16:09;;;;;;;32.28;19.60;;;;;;;5.67;62.81;97018.28;10324552;28;20076;-59